sensor_id;sensor_type;location;lat;lon;timestamp;P1;P2;P0
46591;PMS6003;32314;48.748;9.656;2022-12-18T00:51:19;57.00;45.00;25.50
46591;PMS6003;32314;48.748;9.656;2022-12-18T00:54:14;61.50;48.25;26.50
46591;PMS6003;32314;48.748;9.656;2022-12-18T00:57:04;62.00;49.25;28.75
46591;PMS6003;32314;48.748;9.656;2022-12-18T00:59:54;70.50;54.00;30.50
46591;PMS6003;32314;48.748;9.656;2022-12-18T01:02:50;72.75;54.00;30.00
46591;PMS6003;32314;48.748;9.656;2022-12-18T01:05:51;65.50;50.00;30.50
46591;PMS6003;32314;48.748;9.656;2022-12-18T01:08:45;66.25;53.75;31.00
46591;PMS6003;32314;48.748;9.656;2022-12-18T01:11:49;55.25;48.50;30.25
46591;PMS6003;32314;48.748;9.656;2022-12-18T01:14:47;59.50;49.00;30.00
46591;PMS6003;32314;48.748;9.656;2022-12-18T01:17:41;66.50;51.75;30.00
46591;PMS6003;32314;48.748;9.656;2022-12-18T01:20:30;48.50;45.75;29.50
46591;PMS6003;32314;48.748;9.656;2022-12-18T01:23:20;56.75;45.00;28.50
46591;PMS6003;32314;48.748;9.656;2022-12-18T01:26:13;74.75;56.00;32.50
46591;PMS6003;32314;48.748;9.656;2022-12-18T01:29:14;79.25;61.25;34.00
46591;PMS6003;32314;48.748;9.656;2022-12-18T01:32:00;73.50;56.50;33.50
46591;PMS6003;32314;48.748;9.656;2022-12-18T01:34:49;83.00;64.50;35.00
46591;PMS6003;32314;48.748;9.656;2022-12-18T01:37:34;83.50;65.50;37.50
46591;PMS6003;32314;48.748;9.656;2022-12-18T01:40:20;79.75;60.50;34.00
46591;PMS6003;32314;48.748;9.656;2022-12-18T01:43:08;81.25;61.50;34.00
46591;PMS6003;32314;48.748;9.656;2022-12-18T01:45:54;78.00;62.00;34.50
46591;PMS6003;32314;48.748;9.656;2022-12-18T01:48:42;84.50;59.00;32.50
46591;PMS6003;32314;48.748;9.656;2022-12-18T01:51:29;76.25;57.75;32.00
46591;PMS6003;32314;48.748;9.656;2022-12-18T01:54:16;72.75;58.50;31.25
46591;PMS6003;32314;48.748;9.656;2022-12-18T01:57:04;58.50;46.75;24.75
46591;PMS6003;32314;48.748;9.656;2022-12-18T01:59:51;58.00;45.25;25.00
46591;PMS6003;32314;48.748;9.656;2022-12-18T02:02:39;38.50;34.75;18.25
46591;PMS6003;32314;48.748;9.656;2022-12-18T02:08:38;38.75;36.25;20.50
46591;PMS6003;32314;48.748;9.656;2022-12-18T02:11:44;46.00;42.25;20.75
46591;PMS6003;32314;48.748;9.656;2022-12-18T02:17:28;48.25;43.25;22.50
46591;PMS6003;32314;48.748;9.656;2022-12-18T02:20:21;30.75;29.50;14.75
46591;PMS6003;32314;48.748;9.656;2022-12-18T02:28:53;42.50;40.75;23.00
46591;PMS6003;32314;48.748;9.656;2022-12-18T02:31:48;40.75;40.25;25.50
46591;PMS6003;32314;48.748;9.656;2022-12-18T02:34:40;46.50;43.50;24.50
46591;PMS6003;32314;48.748;9.656;2022-12-18T02:37:33;47.25;43.00;24.75
46591;PMS6003;32314;48.748;9.656;2022-12-18T02:40:22;59.00;47.75;24.75
46591;PMS6003;32314;48.748;9.656;2022-12-18T02:43:10;53.50;44.00;23.25
46591;PMS6003;32314;48.748;9.656;2022-12-18T02:45:59;41.75;34.00;16.75
46591;PMS6003;32314;48.748;9.656;2022-12-18T02:48:49;58.25;49.50;27.75
46591;PMS6003;32314;48.748;9.656;2022-12-18T02:51:50;61.00;49.25;29.75
46591;PMS6003;32314;48.748;9.656;2022-12-18T02:54:47;47.25;41.50;22.75
46591;PMS6003;32314;48.748;9.656;2022-12-18T02:57:54;59.75;46.25;26.75
46591;PMS6003;32314;48.748;9.656;2022-12-18T03:00:59;64.75;49.00;26.00
46591;PMS6003;32314;48.748;9.656;2022-12-18T03:03:54;53.75;41.50;24.50
46591;PMS6003;32314;48.748;9.656;2022-12-18T03:06:44;56.50;45.75;24.50
46591;PMS6003;32314;48.748;9.656;2022-12-18T03:09:35;51.25;43.25;23.50
46591;PMS6003;32314;48.748;9.656;2022-12-18T03:12:32;57.25;44.50;23.75
46591;PMS6003;32314;48.748;9.656;2022-12-18T03:15:26;52.00;44.00;24.00
46591;PMS6003;32314;48.748;9.656;2022-12-18T03:18:24;62.00;47.25;26.00
46591;PMS6003;32314;48.748;9.656;2022-12-18T03:21:15;63.75;42.75;22.50
46591;PMS6003;32314;48.748;9.656;2022-12-18T03:24:03;50.00;45.75;24.75
46591;PMS6003;32314;48.748;9.656;2022-12-18T03:26:53;59.25;47.00;23.75
46591;PMS6003;32314;48.748;9.656;2022-12-18T03:29:42;60.25;45.25;26.00
46591;PMS6003;32314;48.748;9.656;2022-12-18T03:33:19;43.00;40.50;20.75
46591;PMS6003;32314;48.748;9.656;2022-12-18T03:36:06;60.25;44.25;23.75
46591;PMS6003;32314;48.748;9.656;2022-12-18T03:38:52;49.50;42.75;25.00
46591;PMS6003;32314;48.748;9.656;2022-12-18T03:41:43;50.75;41.50;22.75
46591;PMS6003;32314;48.748;9.656;2022-12-18T03:51:10;48.50;41.75;21.00
46591;PMS6003;32314;48.748;9.656;2022-12-18T03:54:03;59.25;47.25;25.25
46591;PMS6003;32314;48.748;9.656;2022-12-18T03:56:59;51.25;44.75;26.00
46591;PMS6003;32314;48.748;9.656;2022-12-18T03:59:50;52.00;46.50;24.00
46591;PMS6003;32314;48.748;9.656;2022-12-18T04:02:51;55.50;41.25;21.75
46591;PMS6003;32314;48.748;9.656;2022-12-18T04:05:43;47.50;42.75;24.75
46591;PMS6003;32314;48.748;9.656;2022-12-18T04:08:30;57.00;41.50;22.25
46591;PMS6003;32314;48.748;9.656;2022-12-18T04:11:23;47.75;42.25;21.75
46591;PMS6003;32314;48.748;9.656;2022-12-18T04:14:10;43.00;36.25;20.00
46591;PMS6003;32314;48.748;9.656;2022-12-18T04:16:56;46.00;42.25;22.25
46591;PMS6003;32314;48.748;9.656;2022-12-18T04:19:48;50.00;43.00;22.75
46591;PMS6003;32314;48.748;9.656;2022-12-18T04:22:35;38.75;37.25;25.00
46591;PMS6003;32314;48.748;9.656;2022-12-18T04:25:20;48.50;42.25;23.00
46591;PMS6003;32314;48.748;9.656;2022-12-18T04:28:19;53.50;40.75;24.75
46591;PMS6003;32314;48.748;9.656;2022-12-18T04:31:06;63.75;45.75;25.50
46591;PMS6003;32314;48.748;9.656;2022-12-18T04:33:52;64.25;48.00;26.50
46591;PMS6003;32314;48.748;9.656;2022-12-18T04:36:39;61.00;45.50;26.25
46591;PMS6003;32314;48.748;9.656;2022-12-18T04:39:25;51.50;43.25;23.50
46591;PMS6003;32314;48.748;9.656;2022-12-18T04:42:13;62.75;45.25;23.25
46591;PMS6003;32314;48.748;9.656;2022-12-18T04:44:59;61.50;45.00;24.50
46591;PMS6003;32314;48.748;9.656;2022-12-18T04:47:45;58.50;47.00;27.00
46591;PMS6003;32314;48.748;9.656;2022-12-18T04:50:31;55.75;44.75;25.75
46591;PMS6003;32314;48.748;9.656;2022-12-18T04:53:17;49.00;41.50;22.50
46591;PMS6003;32314;48.748;9.656;2022-12-18T04:56:04;55.00;43.75;23.25
46591;PMS6003;32314;48.748;9.656;2022-12-18T04:58:56;51.50;43.25;22.00
46591;PMS6003;32314;48.748;9.656;2022-12-18T05:01:42;59.50;45.75;23.50
46591;PMS6003;32314;48.748;9.656;2022-12-18T05:04:28;62.00;48.25;24.00
46591;PMS6003;32314;48.748;9.656;2022-12-18T05:07:14;12.00;7.00;5.50
46591;PMS6003;32314;48.748;9.656;2022-12-18T05:09:59;44.75;42.50;23.75
46591;PMS6003;32314;48.748;9.656;2022-12-18T05:12:45;54.75;43.00;26.25
46591;PMS6003;32314;48.748;9.656;2022-12-18T05:15:43;55.75;46.00;25.25
46591;PMS6003;32314;48.748;9.656;2022-12-18T05:18:37;65.25;48.75;25.50
46591;PMS6003;32314;48.748;9.656;2022-12-18T05:21:23;36.00;33.75;15.00
46591;PMS6003;32314;48.748;9.656;2022-12-18T05:24:09;55.75;45.75;23.50
46591;PMS6003;32314;48.748;9.656;2022-12-18T05:26:54;43.75;35.75;21.25
46591;PMS6003;32314;48.748;9.656;2022-12-18T05:29:40;3.50;1.00;0.00
46591;PMS6003;32314;48.748;9.656;2022-12-18T05:32:26;63.00;45.75;21.75
46591;PMS6003;32314;48.748;9.656;2022-12-18T05:35:12;56.75;46.00;26.75
46591;PMS6003;32314;48.748;9.656;2022-12-18T05:37:58;10.75;8.00;6.75
46591;PMS6003;32314;48.748;9.656;2022-12-18T05:40:43;59.50;45.25;25.25
46591;PMS6003;32314;48.748;9.656;2022-12-18T05:43:29;62.50;45.00;26.75
46591;PMS6003;32314;48.748;9.656;2022-12-18T05:46:16;7.25;7.25;6.75
46591;PMS6003;32314;48.748;9.656;2022-12-18T05:49:03;57.25;45.75;27.00
46591;PMS6003;32314;48.748;9.656;2022-12-18T05:51:49;58.50;42.50;22.00
46591;PMS6003;32314;48.748;9.656;2022-12-18T05:54:37;9.00;7.00;5.00
46591;PMS6003;32314;48.748;9.656;2022-12-18T05:57:25;53.00;46.00;24.75
46591;PMS6003;32314;48.748;9.656;2022-12-18T06:00:11;12.50;9.25;6.25
46591;PMS6003;32314;48.748;9.656;2022-12-18T06:02:58;56.75;44.75;24.25
46591;PMS6003;32314;48.748;9.656;2022-12-18T06:05:44;60.75;50.50;27.00
46591;PMS6003;32314;48.748;9.656;2022-12-18T06:08:30;61.25;47.25;24.00
46591;PMS6003;32314;48.748;9.656;2022-12-18T06:11:17;7.75;7.00;6.00
46591;PMS6003;32314;48.748;9.656;2022-12-18T06:14:06;61.25;43.50;23.00
46591;PMS6003;32314;48.748;9.656;2022-12-18T06:16:52;6.00;6.00;4.50
46591;PMS6003;32314;48.748;9.656;2022-12-18T06:19:38;51.25;43.50;22.00
46591;PMS6003;32314;48.748;9.656;2022-12-18T06:22:24;9.50;7.00;6.00
46591;PMS6003;32314;48.748;9.656;2022-12-18T06:25:11;52.50;45.00;20.50
46591;PMS6003;32314;48.748;9.656;2022-12-18T06:27:57;13.75;11.00;8.50
46591;PMS6003;32314;48.748;9.656;2022-12-18T06:30:44;45.25;39.25;14.75
46591;PMS6003;32314;48.748;9.656;2022-12-18T06:33:30;54.75;44.25;23.25
46591;PMS6003;32314;48.748;9.656;2022-12-18T06:36:17;9.50;9.50;9.00
46591;PMS6003;32314;48.748;9.656;2022-12-18T06:39:02;53.50;43.00;24.00
46591;PMS6003;32314;48.748;9.656;2022-12-18T06:41:48;10.25;7.50;5.00
46591;PMS6003;32314;48.748;9.656;2022-12-18T06:44:34;58.75;46.25;24.75
46591;PMS6003;32314;48.748;9.656;2022-12-18T06:47:20;55.75;44.75;25.75
46591;PMS6003;32314;48.748;9.656;2022-12-18T06:50:07;56.00;45.25;27.00
46591;PMS6003;32314;48.748;9.656;2022-12-18T06:52:53;62.00;45.50;22.75
46591;PMS6003;32314;48.748;9.656;2022-12-18T06:55:39;19.00;12.00;7.00
46591;PMS6003;32314;48.748;9.656;2022-12-18T06:58:25;12.00;12.00;9.25
46591;PMS6003;32314;48.748;9.656;2022-12-18T07:01:11;9.75;9.50;6.75
46591;PMS6003;32314;48.748;9.656;2022-12-18T07:03:58;8.50;7.50;4.50
46591;PMS6003;32314;48.748;9.656;2022-12-18T07:06:44;62.50;43.00;19.75
46591;PMS6003;32314;48.748;9.656;2022-12-18T07:09:30;58.25;47.75;25.75
46591;PMS6003;32314;48.748;9.656;2022-12-18T07:12:15;48.00;37.50;18.00
46591;PMS6003;32314;48.748;9.656;2022-12-18T07:15:02;17.75;11.50;9.00
46591;PMS6003;32314;48.748;9.656;2022-12-18T07:17:48;9.00;9.00;7.50
46591;PMS6003;32314;48.748;9.656;2022-12-18T07:20:34;59.50;48.00;25.00
46591;PMS6003;32314;48.748;9.656;2022-12-18T07:23:20;52.75;43.75;25.50
46591;PMS6003;32314;48.748;9.656;2022-12-18T07:26:10;56.75;47.75;26.25
46591;PMS6003;32314;48.748;9.656;2022-12-18T07:28:57;35.25;31.00;7.00
46591;PMS6003;32314;48.748;9.656;2022-12-18T07:31:43;12.75;7.00;6.25
46591;PMS6003;32314;48.748;9.656;2022-12-18T07:34:32;54.25;44.00;25.00
46591;PMS6003;32314;48.748;9.656;2022-12-18T07:37:17;18.50;14.00;9.50
46591;PMS6003;32314;48.748;9.656;2022-12-18T07:40:03;63.75;46.00;25.00
46591;PMS6003;32314;48.748;9.656;2022-12-18T07:42:50;14.00;10.00;7.00
46591;PMS6003;32314;48.748;9.656;2022-12-18T07:45:36;56.00;42.50;24.25
46591;PMS6003;32314;48.748;9.656;2022-12-18T07:48:21;63.25;47.25;24.00
46591;PMS6003;32314;48.748;9.656;2022-12-18T07:51:16;65.75;51.25;26.75
46591;PMS6003;32314;48.748;9.656;2022-12-18T07:54:06;13.75;13.75;9.75
46591;PMS6003;32314;48.748;9.656;2022-12-18T07:56:52;6.75;6.75;5.75
46591;PMS6003;32314;48.748;9.656;2022-12-18T07:59:38;59.50;48.25;26.00
46591;PMS6003;32314;48.748;9.656;2022-12-18T08:02:24;9.50;7.50;5.50
46591;PMS6003;32314;48.748;9.656;2022-12-18T08:05:10;53.25;41.25;20.50
46591;PMS6003;32314;48.748;9.656;2022-12-18T08:07:56;55.75;42.25;18.50
46591;PMS6003;32314;48.748;9.656;2022-12-18T08:10:43;8.50;8.50;5.00
46591;PMS6003;32314;48.748;9.656;2022-12-18T08:13:29;52.25;46.75;26.00
46591;PMS6003;32314;48.748;9.656;2022-12-18T08:16:15;13.00;7.50;3.50
46591;PMS6003;32314;48.748;9.656;2022-12-18T08:19:01;59.25;44.75;21.25
46591;PMS6003;32314;48.748;9.656;2022-12-18T08:21:47;12.00;10.50;9.00
46591;PMS6003;32314;48.748;9.656;2022-12-18T08:24:33;14.50;11.50;8.50
46591;PMS6003;32314;48.748;9.656;2022-12-18T08:27:19;18.75;13.50;8.00
46591;PMS6003;32314;48.748;9.656;2022-12-18T08:30:05;17.00;14.00;9.50
46591;PMS6003;32314;48.748;9.656;2022-12-18T08:32:51;7.75;7.00;7.00
46591;PMS6003;32314;48.748;9.656;2022-12-18T08:35:38;6.00;6.00;4.50
46591;PMS6003;32314;48.748;9.656;2022-12-18T08:38:25;53.00;44.00;25.50
46591;PMS6003;32314;48.748;9.656;2022-12-18T08:41:12;6.75;6.75;5.00
46591;PMS6003;32314;48.748;9.656;2022-12-18T08:43:59;14.75;7.00;5.00
46591;PMS6003;32314;48.748;9.656;2022-12-18T08:47:04;13.25;9.25;7.00
46591;PMS6003;32314;48.748;9.656;2022-12-18T08:49:51;21.50;17.25;10.50
46591;PMS6003;32314;48.748;9.656;2022-12-18T08:52:44;12.25;9.25;6.50
46591;PMS6003;32314;48.748;9.656;2022-12-18T09:03:34;9.00;9.00;8.25
46591;PMS6003;32314;48.748;9.656;2022-12-18T09:06:21;13.00;9.00;7.00
46591;PMS6003;32314;48.748;9.656;2022-12-18T09:09:09;14.50;12.25;10.00
46591;PMS6003;32314;48.748;9.656;2022-12-18T09:11:55;7.50;7.50;6.00
46591;PMS6003;32314;48.748;9.656;2022-12-18T09:14:41;15.75;10.75;7.00
46591;PMS6003;32314;48.748;9.656;2022-12-18T09:17:26;17.25;12.25;10.25
46591;PMS6003;32314;48.748;9.656;2022-12-18T09:20:12;5.00;5.00;3.25
46591;PMS6003;32314;48.748;9.656;2022-12-18T09:22:58;17.75;14.00;8.00
46591;PMS6003;32314;48.748;9.656;2022-12-18T09:25:44;16.25;12.00;9.00
46591;PMS6003;32314;48.748;9.656;2022-12-18T09:28:30;5.50;5.50;4.00
46591;PMS6003;32314;48.748;9.656;2022-12-18T09:31:16;19.00;13.50;9.75
46591;PMS6003;32314;48.748;9.656;2022-12-18T09:34:06;10.00;10.00;9.00
46591;PMS6003;32314;48.748;9.656;2022-12-18T09:36:52;4.00;4.00;3.00
46591;PMS6003;32314;48.748;9.656;2022-12-18T09:39:38;8.75;8.75;7.50
46591;PMS6003;32314;48.748;9.656;2022-12-18T09:42:24;12.50;12.50;7.50
46591;PMS6003;32314;48.748;9.656;2022-12-18T09:45:11;10.25;9.25;7.00
46591;PMS6003;32314;48.748;9.656;2022-12-18T09:48:03;12.75;11.50;7.50
46591;PMS6003;32314;48.748;9.656;2022-12-18T09:50:50;13.50;10.50;8.50
46591;PMS6003;32314;48.748;9.656;2022-12-18T09:53:35;9.25;9.00;7.50
46591;PMS6003;32314;48.748;9.656;2022-12-18T09:56:33;3.50;3.50;3.00
46591;PMS6003;32314;48.748;9.656;2022-12-18T09:59:23;14.50;12.00;7.50
46591;PMS6003;32314;48.748;9.656;2022-12-18T10:02:15;14.50;6.25;5.50
46591;PMS6003;32314;48.748;9.656;2022-12-18T10:14:53;10.25;10.25;8.75
46591;PMS6003;32314;48.748;9.656;2022-12-18T10:18:15;9.25;9.25;7.00
46591;PMS6003;32314;48.748;9.656;2022-12-18T10:21:18;14.50;14.50;9.75
46591;PMS6003;32314;48.748;9.656;2022-12-18T10:27:18;9.25;9.25;7.00
46591;PMS6003;32314;48.748;9.656;2022-12-18T10:30:14;12.00;9.50;6.50
46591;PMS6003;32314;48.748;9.656;2022-12-18T10:33:02;9.75;9.75;8.00
46591;PMS6003;32314;48.748;9.656;2022-12-18T10:35:49;21.75;16.50;9.25
46591;PMS6003;32314;48.748;9.656;2022-12-18T10:38:39;8.00;8.00;5.50
46591;PMS6003;32314;48.748;9.656;2022-12-18T10:41:26;6.75;6.25;5.50
46591;PMS6003;32314;48.748;9.656;2022-12-18T10:44:16;9.00;8.00;6.25
46591;PMS6003;32314;48.748;9.656;2022-12-18T10:47:11;20.00;12.00;9.25
46591;PMS6003;32314;48.748;9.656;2022-12-18T10:49:59;9.25;6.50;3.75
46591;PMS6003;32314;48.748;9.656;2022-12-18T10:52:52;14.50;8.50;6.00
46591;PMS6003;32314;48.748;9.656;2022-12-18T10:55:43;16.00;13.75;9.25
46591;PMS6003;32314;48.748;9.656;2022-12-18T10:58:34;11.00;9.00;7.00
46591;PMS6003;32314;48.748;9.656;2022-12-18T11:01:21;14.00;12.25;9.25
46591;PMS6003;32314;48.748;9.656;2022-12-18T11:04:08;14.00;10.50;7.50
46591;PMS6003;32314;48.748;9.656;2022-12-18T11:06:56;11.50;11.50;6.50
46591;PMS6003;32314;48.748;9.656;2022-12-18T11:09:59;21.50;12.75;6.75
46591;PMS6003;32314;48.748;9.656;2022-12-18T11:12:48;11.00;10.75;6.75
46591;PMS6003;32314;48.748;9.656;2022-12-18T11:15:34;12.50;12.50;9.75
46591;PMS6003;32314;48.748;9.656;2022-12-18T11:18:29;12.00;12.00;8.50
46591;PMS6003;32314;48.748;9.656;2022-12-18T11:21:17;12.75;10.00;7.00
46591;PMS6003;32314;48.748;9.656;2022-12-18T11:24:03;16.50;10.50;7.00
46591;PMS6003;32314;48.748;9.656;2022-12-18T11:26:49;8.00;5.50;2.50
46591;PMS6003;32314;48.748;9.656;2022-12-18T11:29:36;13.50;9.00;7.75
46591;PMS6003;32314;48.748;9.656;2022-12-18T11:35:34;15.00;7.50;6.00
46591;PMS6003;32314;48.748;9.656;2022-12-18T11:38:29;13.00;12.25;7.00
46591;PMS6003;32314;48.748;9.656;2022-12-18T11:41:35;22.00;12.50;9.75
46591;PMS6003;32314;48.748;9.656;2022-12-18T11:44:51;14.00;12.00;9.00
46591;PMS6003;32314;48.748;9.656;2022-12-18T11:51:14;12.75;10.00;8.00
46591;PMS6003;32314;48.748;9.656;2022-12-18T11:54:12;12.75;11.00;7.50
46591;PMS6003;32314;48.748;9.656;2022-12-18T11:57:05;17.75;15.75;10.00
46591;PMS6003;32314;48.748;9.656;2022-12-18T11:59:55;14.00;11.75;7.00
46591;PMS6003;32314;48.748;9.656;2022-12-18T12:06:38;15.75;12.25;10.00
46591;PMS6003;32314;48.748;9.656;2022-12-18T12:12:58;23.75;19.00;9.75
46591;PMS6003;32314;48.748;9.656;2022-12-18T12:18:56;9.00;9.00;6.50
46591;PMS6003;32314;48.748;9.656;2022-12-18T12:25:11;18.75;12.25;8.00
46591;PMS6003;32314;48.748;9.656;2022-12-18T12:34:31;7.50;7.50;7.00
46591;PMS6003;32314;48.748;9.656;2022-12-18T12:37:36;8.50;8.50;7.00
46591;PMS6003;32314;48.748;9.656;2022-12-18T12:40:30;13.00;10.50;7.00
46591;PMS6003;32314;48.748;9.656;2022-12-18T12:43:21;8.50;8.50;6.75
46591;PMS6003;32314;48.748;9.656;2022-12-18T12:46:09;11.75;9.50;6.25
46591;PMS6003;32314;48.748;9.656;2022-12-18T12:48:56;19.25;17.50;9.75
46591;PMS6003;32314;48.748;9.656;2022-12-18T12:51:45;13.25;12.50;9.00
46591;PMS6003;32314;48.748;9.656;2022-12-18T12:54:35;18.00;15.00;9.50
46591;PMS6003;32314;48.748;9.656;2022-12-18T12:57:23;13.00;12.50;8.00
46591;PMS6003;32314;48.748;9.656;2022-12-18T13:00:13;12.75;10.50;9.25
46591;PMS6003;32314;48.748;9.656;2022-12-18T13:06:33;14.50;9.75;6.75
46591;PMS6003;32314;48.748;9.656;2022-12-18T13:09:19;9.00;9.00;5.00
46591;PMS6003;32314;48.748;9.656;2022-12-18T13:12:09;17.25;12.25;7.00
46591;PMS6003;32314;48.748;9.656;2022-12-18T13:15:20;20.50;16.50;8.00
46591;PMS6003;32314;48.748;9.656;2022-12-18T13:23:39;5.75;3.00;3.00
46591;PMS6003;32314;48.748;9.656;2022-12-18T13:29:21;14.50;12.00;7.50
46591;PMS6003;32314;48.748;9.656;2022-12-18T13:32:26;15.75;11.00;7.00
46591;PMS6003;32314;48.748;9.656;2022-12-18T13:44:17;15.25;15.00;7.50
46591;PMS6003;32314;48.748;9.656;2022-12-18T13:47:27;17.25;14.00;9.00
46591;PMS6003;32314;48.748;9.656;2022-12-18T13:50:20;10.50;9.50;6.75
46591;PMS6003;32314;48.748;9.656;2022-12-18T13:53:20;9.25;9.25;7.00
46591;PMS6003;32314;48.748;9.656;2022-12-18T13:56:08;12.50;10.00;9.00
46591;PMS6003;32314;48.748;9.656;2022-12-18T13:59:10;13.50;13.50;7.50
46591;PMS6003;32314;48.748;9.656;2022-12-18T14:01:58;17.00;12.50;9.75
46591;PMS6003;32314;48.748;9.656;2022-12-18T14:04:45;16.25;12.00;9.25
46591;PMS6003;32314;48.748;9.656;2022-12-18T14:07:32;14.00;11.50;8.50
46591;PMS6003;32314;48.748;9.656;2022-12-18T14:10:18;16.75;14.50;8.50
46591;PMS6003;32314;48.748;9.656;2022-12-18T14:13:05;12.00;12.00;9.00
46591;PMS6003;32314;48.748;9.656;2022-12-18T14:15:51;11.75;11.75;6.50
46591;PMS6003;32314;48.748;9.656;2022-12-18T14:18:54;8.50;5.50;2.50
46591;PMS6003;32314;48.748;9.656;2022-12-18T14:21:45;15.00;12.00;9.75
46591;PMS6003;32314;48.748;9.656;2022-12-18T14:24:32;10.25;10.25;7.50
46591;PMS6003;32314;48.748;9.656;2022-12-18T14:27:20;11.75;9.75;6.25
46591;PMS6003;32314;48.748;9.656;2022-12-18T14:33:17;8.75;6.75;6.00
46591;PMS6003;32314;48.748;9.656;2022-12-18T14:36:04;13.75;9.00;6.75
46591;PMS6003;32314;48.748;9.656;2022-12-18T14:38:52;13.00;9.00;6.50
46591;PMS6003;32314;48.748;9.656;2022-12-18T14:41:39;13.00;9.00;7.00
46591;PMS6003;32314;48.748;9.656;2022-12-18T14:44:25;6.25;6.00;3.00
46591;PMS6003;32314;48.748;9.656;2022-12-18T14:47:15;10.75;9.00;7.00
46591;PMS6003;32314;48.748;9.656;2022-12-18T14:50:02;8.00;8.00;6.00
46591;PMS6003;32314;48.748;9.656;2022-12-18T14:52:48;15.75;13.00;9.00
46591;PMS6003;32314;48.748;9.656;2022-12-18T14:55:34;9.75;9.75;6.25
46591;PMS6003;32314;48.748;9.656;2022-12-18T14:58:21;8.25;7.50;6.75
46591;PMS6003;32314;48.748;9.656;2022-12-18T15:01:08;11.50;8.50;6.00
46591;PMS6003;32314;48.748;9.656;2022-12-18T15:03:55;10.50;8.00;4.00
46591;PMS6003;32314;48.748;9.656;2022-12-18T15:06:42;14.25;11.25;8.25
46591;PMS6003;32314;48.748;9.656;2022-12-18T15:09:28;10.00;6.00;5.50
46591;PMS6003;32314;48.748;9.656;2022-12-18T15:18:31;9.50;9.25;4.50
46591;PMS6003;32314;48.748;9.656;2022-12-18T15:24:52;13.25;13.25;9.00
46591;PMS6003;32314;48.748;9.656;2022-12-18T15:27:46;7.25;7.25;6.25
46591;PMS6003;32314;48.748;9.656;2022-12-18T15:31:04;13.75;11.50;6.25
46591;PMS6003;32314;48.748;9.656;2022-12-18T15:34:10;52.25;44.25;23.50
46591;PMS6003;32314;48.748;9.656;2022-12-18T15:40:23;44.25;37.25;20.00
46591;PMS6003;32314;48.748;9.656;2022-12-18T15:43:11;9.50;6.00;1.00
46591;PMS6003;32314;48.748;9.656;2022-12-18T15:46:22;45.75;38.25;21.50
46591;PMS6003;32314;48.748;9.656;2022-12-18T15:49:31;7.00;7.00;3.75
46591;PMS6003;32314;48.748;9.656;2022-12-18T15:52:20;14.00;9.50;7.00
46591;PMS6003;32314;48.748;9.656;2022-12-18T15:55:17;12.00;10.25;7.50
46591;PMS6003;32314;48.748;9.656;2022-12-18T15:58:32;4.00;4.00;1.50
46591;PMS6003;32314;48.748;9.656;2022-12-18T16:07:43;10.00;9.75;7.00
46591;PMS6003;32314;48.748;9.656;2022-12-18T16:10:33;5.50;5.50;4.00
46591;PMS6003;32314;48.748;9.656;2022-12-18T16:13:52;57.75;42.00;22.50
46591;PMS6003;32314;48.748;9.656;2022-12-18T16:16:44;7.50;7.50;6.00
46591;PMS6003;32314;48.748;9.656;2022-12-18T16:19:43;40.00;38.00;22.00
46591;PMS6003;32314;48.748;9.656;2022-12-18T16:22:58;11.50;9.00;6.00
46591;PMS6003;32314;48.748;9.656;2022-12-18T16:25:51;6.75;5.75;3.00
46591;PMS6003;32314;48.748;9.656;2022-12-18T16:28:52;42.50;40.50;21.75
46591;PMS6003;32314;48.748;9.656;2022-12-18T16:31:44;8.75;8.75;6.00
46591;PMS6003;32314;48.748;9.656;2022-12-18T16:34:39;16.00;14.00;8.50
46591;PMS6003;32314;48.748;9.656;2022-12-18T16:37:51;42.75;39.00;21.50
46591;PMS6003;32314;48.748;9.656;2022-12-18T16:40:40;8.25;6.00;5.50
46591;PMS6003;32314;48.748;9.656;2022-12-18T16:43:53;57.50;41.75;21.25
46591;PMS6003;32314;48.748;9.656;2022-12-18T16:47:02;9.75;7.00;6.00
46591;PMS6003;32314;48.748;9.656;2022-12-18T16:49:56;52.00;38.50;22.50
46591;PMS6003;32314;48.748;9.656;2022-12-18T16:52:45;15.50;8.00;5.00
46591;PMS6003;32314;48.748;9.656;2022-12-18T16:55:37;8.00;8.00;6.75
46591;PMS6003;32314;48.748;9.656;2022-12-18T16:58:23;5.50;5.50;4.00
46591;PMS6003;32314;48.748;9.656;2022-12-18T17:01:38;12.75;9.75;8.00
46591;PMS6003;32314;48.748;9.656;2022-12-18T17:04:48;10.50;10.50;8.00
46591;PMS6003;32314;48.748;9.656;2022-12-18T17:07:34;11.50;10.50;7.00
46591;PMS6003;32314;48.748;9.656;2022-12-18T17:10:20;8.75;7.00;5.00
46591;PMS6003;32314;48.748;9.656;2022-12-18T17:13:07;11.25;11.00;7.00
46591;PMS6003;32314;48.748;9.656;2022-12-18T17:15:53;8.50;7.50;6.75
46591;PMS6003;32314;48.748;9.656;2022-12-18T17:18:39;43.50;32.00;15.50
46591;PMS6003;32314;48.748;9.656;2022-12-18T17:21:25;8.25;8.25;7.00
46591;PMS6003;32314;48.748;9.656;2022-12-18T17:24:11;12.00;9.25;6.00
46591;PMS6003;32314;48.748;9.656;2022-12-18T17:26:58;6.00;3.75;3.75
46591;PMS6003;32314;48.748;9.656;2022-12-18T17:29:44;14.25;9.75;7.00
46591;PMS6003;32314;48.748;9.656;2022-12-18T17:32:29;9.00;9.00;6.00
46591;PMS6003;32314;48.748;9.656;2022-12-18T17:35:18;8.75;8.00;5.50
46591;PMS6003;32314;48.748;9.656;2022-12-18T17:38:04;11.25;9.75;7.00
46591;PMS6003;32314;48.748;9.656;2022-12-18T17:40:50;10.00;7.50;5.00
46591;PMS6003;32314;48.748;9.656;2022-12-18T17:43:36;9.50;9.50;7.00
46591;PMS6003;32314;48.748;9.656;2022-12-18T17:46:31;14.00;12.00;8.50
46591;PMS6003;32314;48.748;9.656;2022-12-18T17:49:18;10.50;9.00;6.25
46591;PMS6003;32314;48.748;9.656;2022-12-18T17:52:04;12.00;8.25;6.75
46591;PMS6003;32314;48.748;9.656;2022-12-18T17:54:50;9.75;9.75;8.00
46591;PMS6003;32314;48.748;9.656;2022-12-18T17:57:37;9.50;7.00;6.00
46591;PMS6003;32314;48.748;9.656;2022-12-18T18:00:23;10.25;9.50;6.50
46591;PMS6003;32314;48.748;9.656;2022-12-18T18:03:09;11.00;11.00;9.00
46591;PMS6003;32314;48.748;9.656;2022-12-18T18:05:56;13.50;9.25;6.50
46591;PMS6003;32314;48.748;9.656;2022-12-18T18:08:43;18.25;11.50;7.00
46591;PMS6003;32314;48.748;9.656;2022-12-18T18:11:29;11.00;6.50;5.50
46591;PMS6003;32314;48.748;9.656;2022-12-18T18:14:33;9.50;7.00;5.00
46591;PMS6003;32314;48.748;9.656;2022-12-18T18:17:19;11.50;8.25;5.50
46591;PMS6003;32314;48.748;9.656;2022-12-18T18:20:05;10.00;6.50;5.75
46591;PMS6003;32314;48.748;9.656;2022-12-18T18:22:51;10.25;8.00;5.50
46591;PMS6003;32314;48.748;9.656;2022-12-18T18:25:37;15.50;12.75;9.75
46591;PMS6003;32314;48.748;9.656;2022-12-18T18:28:23;1.50;1.50;1.00
46591;PMS6003;32314;48.748;9.656;2022-12-18T18:31:09;7.00;7.00;6.00
46591;PMS6003;32314;48.748;9.656;2022-12-18T18:33:56;7.50;6.25;5.00
46591;PMS6003;32314;48.748;9.656;2022-12-18T18:36:42;11.00;11.00;6.75
46591;PMS6003;32314;48.748;9.656;2022-12-18T18:39:29;9.50;9.50;6.00
46591;PMS6003;32314;48.748;9.656;2022-12-18T18:42:16;21.00;14.25;10.75
46591;PMS6003;32314;48.748;9.656;2022-12-18T18:45:02;6.75;6.00;5.50
46591;PMS6003;32314;48.748;9.656;2022-12-18T18:48:10;8.50;7.00;5.50
46591;PMS6003;32314;48.748;9.656;2022-12-18T18:51:11;7.00;6.00;3.25